AWW92TJ EHAM-EGFF
Flight info
| Callsign | AWW92TJ |
|---|---|
| Flight time | 0h 59m |
| Altitude | 28000 |
| Route | IDRID L980 LAM L179 ICTAM |
| Aircraft | A320/M-SDE3FGHIRWY/LB1 |
Departure
| Time | 2026-04-28 19:12 |
|---|---|
| Airport | Amsterdam Airport Schiphol (EHAM) |
Arrival
| Time | 2026-04-28 20:11 |
|---|---|
| Airport | Cardiff International Airport (EGFF) |
| Time | Latitude | Longitude | Altitude | Speed | Heading |
|---|---|---|---|---|---|
| 2026-04-28 19:05 | 52.31565 | 4.74154 | -1 ft | 14 kts | 356° |
| 2026-04-28 19:05 | 52.31675 | 4.74166 | -1 ft | 18 kts | 4° |
| 2026-04-28 19:05 | 52.31810 | 4.74180 | -1 ft | 22 kts | 4° |
| 2026-04-28 19:05 | 52.31934 | 4.74187 | -1 ft | 18 kts | 2° |
| 2026-04-28 19:06 | 52.32027 | 4.74120 | -1 ft | 17 kts | 295° |
| 2026-04-28 19:06 | 52.32038 | 4.73992 | -2 ft | 17 kts | 273° |
| 2026-04-28 19:06 | 52.32047 | 4.73738 | 0 ft | 17 kts | 272° |
| 2026-04-28 19:06 | 52.32053 | 4.73545 | -1 ft | 17 kts | 273° |
| 2026-04-28 19:07 | 52.32091 | 4.73370 | -1 ft | 16 kts | 314° |
| 2026-04-28 19:07 | 52.32180 | 4.73229 | -1 ft | 20 kts | 319° |
| 2026-04-28 19:07 | 52.32297 | 4.73069 | -1 ft | 24 kts | 321° |
| 2026-04-28 19:07 | 52.32436 | 4.72871 | -1 ft | 29 kts | 319° |
| 2026-04-28 19:08 | 52.32597 | 4.72646 | -1 ft | 32 kts | 320° |
| 2026-04-28 19:08 | 52.32761 | 4.72374 | -1 ft | 36 kts | 311° |
| 2026-04-28 19:08 | 52.32931 | 4.72061 | -1 ft | 38 kts | 311° |
| 2026-04-28 19:08 | 52.33073 | 4.71792 | 0 ft | 27 kts | 311° |
| 2026-04-28 19:09 | 52.33146 | 4.71566 | -1 ft | 14 kts | 253° |
| 2026-04-28 19:09 | 52.33141 | 4.71411 | -1 ft | 14 kts | 302° |
| 2026-04-28 19:09 | 52.33205 | 4.71287 | -1 ft | 14 kts | 312° |
| 2026-04-28 19:09 | 52.33262 | 4.71181 | -1 ft | 1 kts | 311° |
| 2026-04-28 19:10 | 52.33270 | 4.71166 | -1 ft | 3 kts | 311° |
| 2026-04-28 19:10 | 52.33299 | 4.71112 | -1 ft | 17 kts | 311° |
| 2026-04-28 19:10 | 52.33396 | 4.70970 | -2 ft | 17 kts | 332° |
| 2026-04-28 19:10 | 52.33486 | 4.70951 | -2 ft | 13 kts | 349° |
| 2026-04-28 19:11 | 52.33498 | 4.70950 | -1 ft | 0 kts | 1° |
| 2026-04-28 19:11 | 52.33563 | 4.70955 | 0 ft | 42 kts | 3° |
| 2026-04-28 19:12 | 52.34196 | 4.71017 | -3 ft | 134 kts | 3° |
| 2026-04-28 19:12 | 52.35249 | 4.71092 | 620 ft | 155 kts | 6° |
| 2026-04-28 19:12 | 52.36344 | 4.71180 | 1632 ft | 163 kts | 13° |
| 2026-04-28 19:12 | 52.37549 | 4.71315 | 2371 ft | 185 kts | 14° |
| 2026-04-28 19:13 | 52.38918 | 4.71475 | 3067 ft | 208 kts | 12° |
| 2026-04-28 19:13 | 52.40430 | 4.71635 | 3834 ft | 229 kts | 10° |
| 2026-04-28 19:13 | 52.42069 | 4.71612 | 4859 ft | 244 kts | 354° |
| 2026-04-28 19:13 | 52.43669 | 4.70618 | 5918 ft | 254 kts | 335° |
| 2026-04-28 19:14 | 52.45268 | 4.69348 | 7026 ft | 252 kts | 341° |
| 2026-04-28 19:14 | 52.46843 | 4.68153 | 8069 ft | 256 kts | 334° |
| 2026-04-28 19:14 | 52.48180 | 4.66166 | 9182 ft | 267 kts | 307° |
| 2026-04-28 19:14 | 52.48839 | 4.63294 | 10303 ft | 275 kts | 277° |
| 2026-04-28 19:15 | 52.48589 | 4.60117 | 11118 ft | 296 kts | 247° |
| 2026-04-28 19:15 | 52.47373 | 4.57255 | 11722 ft | 319 kts | 226° |
| 2026-04-28 19:15 | 52.45790 | 4.54502 | 12308 ft | 344 kts | 224° |
| 2026-04-28 19:15 | 52.44637 | 4.52595 | 12839 ft | 352 kts | 224° |
| 2026-04-28 19:16 | 52.42406 | 4.48671 | 13236 ft | 356 kts | 231° |
| 2026-04-28 19:16 | 52.41078 | 4.45248 | 13289 ft | 356 kts | 241° |
| 2026-04-28 19:16 | 52.39899 | 4.41676 | 13288 ft | 357 kts | 241° |
| 2026-04-28 19:16 | 52.38736 | 4.38088 | 13280 ft | 357 kts | 242° |
| 2026-04-28 19:17 | 52.37580 | 4.34503 | 13287 ft | 355 kts | 242° |
| 2026-04-28 19:17 | 52.36424 | 4.30921 | 13289 ft | 356 kts | 242° |
| 2026-04-28 19:17 | 52.35252 | 4.27308 | 14025 ft | 362 kts | 242° |
| 2026-04-28 19:17 | 52.34062 | 4.23667 | 15065 ft | 365 kts | 242° |
| 2026-04-28 19:18 | 52.32853 | 4.19989 | 16064 ft | 369 kts | 242° |
| 2026-04-28 19:18 | 52.31610 | 4.16283 | 16991 ft | 375 kts | 238° |
| 2026-04-28 19:18 | 52.30084 | 4.12790 | 17886 ft | 380 kts | 231° |
| 2026-04-28 19:18 | 52.28444 | 4.09363 | 18791 ft | 385 kts | 231° |
| 2026-04-28 19:19 | 52.26783 | 4.05896 | 19587 ft | 390 kts | 232° |
| 2026-04-28 19:19 | 52.25102 | 4.02377 | 20377 ft | 396 kts | 232° |
| 2026-04-28 19:19 | 52.23401 | 3.98811 | 21156 ft | 401 kts | 232° |
| 2026-04-28 19:19 | 52.21673 | 3.95197 | 21936 ft | 407 kts | 231° |
| 2026-04-28 19:20 | 52.19917 | 3.91535 | 22714 ft | 412 kts | 231° |
| 2026-04-28 19:20 | 52.18135 | 3.87833 | 23482 ft | 418 kts | 231° |
| 2026-04-28 19:20 | 52.16328 | 3.84083 | 24059 ft | 424 kts | 231° |
| 2026-04-28 19:20 | 52.14505 | 3.80302 | 24227 ft | 425 kts | 231° |
| 2026-04-28 19:21 | 52.12672 | 3.76515 | 24273 ft | 426 kts | 231° |
| 2026-04-28 19:21 | 52.10836 | 3.72729 | 24270 ft | 426 kts | 231° |
| 2026-04-28 19:21 | 52.09002 | 3.68946 | 24271 ft | 426 kts | 231° |
| 2026-04-28 19:21 | 52.07169 | 3.65159 | 24272 ft | 426 kts | 231° |
| 2026-04-28 19:22 | 52.05360 | 3.61426 | 24272 ft | 426 kts | 231° |
| 2026-04-28 19:22 | 52.04119 | 3.58868 | 24271 ft | 426 kts | 231° |
| 2026-04-28 19:22 | 52.01685 | 3.53873 | 24266 ft | 426 kts | 230° |
| 2026-04-28 19:22 | 51.99846 | 3.50104 | 24263 ft | 426 kts | 230° |
| 2026-04-28 19:23 | 51.98032 | 3.46299 | 24266 ft | 426 kts | 232° |
| 2026-04-28 19:23 | 51.96271 | 3.42442 | 24263 ft | 425 kts | 233° |
| 2026-04-28 19:23 | 51.94537 | 3.38547 | 24258 ft | 427 kts | 233° |
| 2026-04-28 19:23 | 51.92806 | 3.34626 | 24258 ft | 428 kts | 233° |
| 2026-04-28 19:24 | 51.91065 | 3.30713 | 24252 ft | 428 kts | 232° |
| 2026-04-28 19:24 | 51.89312 | 3.26819 | 24253 ft | 428 kts | 232° |
| 2026-04-28 19:24 | 51.87571 | 3.22919 | 24250 ft | 428 kts | 235° |
| 2026-04-28 19:24 | 51.86105 | 3.18719 | 24252 ft | 430 kts | 244° |
| 2026-04-28 19:25 | 51.85044 | 3.14201 | 24243 ft | 430 kts | 254° |
| 2026-04-28 19:25 | 51.84421 | 3.09480 | 24255 ft | 430 kts | 263° |
| 2026-04-28 19:25 | 51.84111 | 3.04677 | 24255 ft | 430 kts | 265° |
| 2026-04-28 19:25 | 51.83805 | 2.99864 | 24254 ft | 430 kts | 265° |
| 2026-04-28 19:26 | 51.83494 | 2.95059 | 24258 ft | 430 kts | 265° |
| 2026-04-28 19:26 | 51.83180 | 2.90263 | 24268 ft | 430 kts | 264° |
| 2026-04-28 19:26 | 51.82858 | 2.85411 | 24595 ft | 437 kts | 264° |
| 2026-04-28 19:26 | 51.82529 | 2.80505 | 25247 ft | 442 kts | 264° |
| 2026-04-28 19:27 | 51.82193 | 2.75542 | 25843 ft | 447 kts | 264° |
| 2026-04-28 19:27 | 51.81850 | 2.70512 | 26416 ft | 452 kts | 264° |
| 2026-04-28 19:27 | 51.81502 | 2.65430 | 26989 ft | 457 kts | 264° |
| 2026-04-28 19:27 | 51.81148 | 2.60291 | 27525 ft | 463 kts | 264° |
| 2026-04-28 19:28 | 51.80788 | 2.55102 | 28043 ft | 468 kts | 264° |
| 2026-04-28 19:28 | 51.80424 | 2.49860 | 28242 ft | 470 kts | 264° |
| 2026-04-28 19:28 | 51.80064 | 2.44767 | 28275 ft | 453 kts | 264° |
| 2026-04-28 19:28 | 51.79708 | 2.39771 | 28273 ft | 446 kts | 264° |
| 2026-04-28 19:29 | 51.79111 | 2.31451 | 28277 ft | 445 kts | 264° |
| 2026-04-28 19:29 | 51.78287 | 2.19961 | 28262 ft | 440 kts | 264° |
| 2026-04-28 19:30 | 51.77697 | 2.10164 | 28274 ft | 438 kts | 265° |
| 2026-04-28 19:30 | 51.77156 | 2.00376 | 28274 ft | 438 kts | 265° |
| 2026-04-28 19:31 | 51.76592 | 1.90594 | 28276 ft | 438 kts | 265° |
| 2026-04-28 19:31 | 51.75993 | 1.80793 | 28266 ft | 439 kts | 265° |
| 2026-04-28 19:32 | 51.75376 | 1.70967 | 28266 ft | 440 kts | 264° |
| 2026-04-28 19:32 | 51.74751 | 1.61131 | 28268 ft | 441 kts | 264° |
| 2026-04-28 19:33 | 51.74133 | 1.51295 | 28274 ft | 441 kts | 264° |
| 2026-04-28 19:33 | 51.73501 | 1.41447 | 28281 ft | 442 kts | 264° |
| 2026-04-28 19:34 | 51.72853 | 1.31578 | 28275 ft | 443 kts | 264° |
| 2026-04-28 19:34 | 51.72193 | 1.21687 | 28274 ft | 444 kts | 264° |
| 2026-04-28 19:35 | 51.71534 | 1.11788 | 28277 ft | 444 kts | 264° |
| 2026-04-28 19:35 | 51.70866 | 1.01879 | 28272 ft | 445 kts | 264° |
| 2026-04-28 19:36 | 51.70177 | 0.91967 | 28266 ft | 446 kts | 264° |
| 2026-04-28 19:36 | 51.69484 | 0.82013 | 28250 ft | 448 kts | 264° |
| 2026-04-28 19:37 | 51.69023 | 0.75404 | 28251 ft | 449 kts | 264° |
| 2026-04-28 19:37 | 51.68063 | 0.62013 | 28253 ft | 450 kts | 264° |
| 2026-04-28 19:38 | 51.67458 | 0.53684 | 28255 ft | 450 kts | 263° |
| 2026-04-28 19:38 | 51.66729 | 0.43659 | 28256 ft | 451 kts | 264° |
| 2026-04-28 19:39 | 51.65986 | 0.33594 | 28292 ft | 453 kts | 263° |
| 2026-04-28 19:39 | 51.65236 | 0.23516 | 28280 ft | 454 kts | 263° |
| 2026-04-28 19:40 | 51.64471 | 0.13436 | 28278 ft | 454 kts | 262° |
| 2026-04-28 19:40 | 51.63470 | 0.03395 | 28283 ft | 454 kts | 259° |
| 2026-04-28 19:41 | 51.62891 | -0.01610 | 28387 ft | 455 kts | 259° |
| 2026-04-28 19:41 | 51.62299 | -0.06613 | 28384 ft | 456 kts | 259° |
| 2026-04-28 19:41 | 51.61187 | -0.16683 | 28396 ft | 458 kts | 262° |
| 2026-04-28 19:42 | 51.60355 | -0.26833 | 28408 ft | 458 kts | 264° |
| 2026-04-28 19:42 | 51.59984 | -0.31924 | 28278 ft | 459 kts | 264° |
| 2026-04-28 19:42 | 51.59605 | -0.37025 | 28281 ft | 459 kts | 263° |
| 2026-04-28 19:43 | 51.58787 | -0.47207 | 28282 ft | 459 kts | 263° |
| 2026-04-28 19:43 | 51.57910 | -0.57384 | 28282 ft | 460 kts | 262° |
| 2026-04-28 19:44 | 51.57021 | -0.67568 | 28320 ft | 459 kts | 262° |
| 2026-04-28 19:44 | 51.56138 | -0.77715 | 28318 ft | 458 kts | 262° |
| 2026-04-28 19:45 | 51.55266 | -0.87761 | 28310 ft | 456 kts | 262° |
| 2026-04-28 19:45 | 51.54377 | -0.97855 | 28321 ft | 456 kts | 262° |
| 2026-04-28 19:46 | 51.53928 | -1.02885 | 27989 ft | 454 kts | 262° |
| 2026-04-28 19:46 | 51.53474 | -1.07918 | 27281 ft | 455 kts | 262° |
| 2026-04-28 19:46 | 51.53052 | -1.12934 | 26703 ft | 452 kts | 266° |
| 2026-04-28 19:46 | 51.53026 | -1.17956 | 26104 ft | 447 kts | 277° |
| 2026-04-28 19:47 | 51.53481 | -1.22817 | 25744 ft | 435 kts | 284° |
| 2026-04-28 19:47 | 51.54046 | -1.27551 | 25340 ft | 428 kts | 284° |
| 2026-04-28 19:47 | 51.54600 | -1.32223 | 24940 ft | 423 kts | 284° |
| 2026-04-28 19:47 | 51.55145 | -1.36844 | 24550 ft | 419 kts | 284° |
| 2026-04-28 19:48 | 51.55683 | -1.41433 | 24158 ft | 416 kts | 284° |
| 2026-04-28 19:48 | 51.56214 | -1.45988 | 23780 ft | 414 kts | 284° |
| 2026-04-28 19:48 | 51.56744 | -1.50525 | 23337 ft | 412 kts | 285° |
| 2026-04-28 19:48 | 51.57271 | -1.55041 | 22978 ft | 410 kts | 284° |
| 2026-04-28 19:49 | 51.57789 | -1.59529 | 22586 ft | 407 kts | 284° |
| 2026-04-28 19:49 | 51.58302 | -1.63995 | 22210 ft | 405 kts | 284° |
| 2026-04-28 19:49 | 51.58767 | -1.68444 | 21831 ft | 402 kts | 282° |
| 2026-04-28 19:49 | 51.59136 | -1.72890 | 21454 ft | 400 kts | 279° |
| 2026-04-28 19:50 | 51.59723 | -1.81726 | 20706 ft | 394 kts | 278° |
| 2026-04-28 19:50 | 51.59998 | -1.86100 | 20334 ft | 391 kts | 278° |
| 2026-04-28 19:50 | 51.60279 | -1.90435 | 19970 ft | 389 kts | 278° |
| 2026-04-28 19:51 | 51.60572 | -1.94744 | 19619 ft | 386 kts | 279° |
| 2026-04-28 19:51 | 51.60807 | -1.99036 | 19248 ft | 386 kts | 272° |
| 2026-04-28 19:51 | 51.60560 | -2.03314 | 18886 ft | 383 kts | 258° |
| 2026-04-28 19:51 | 51.59762 | -2.07374 | 18506 ft | 378 kts | 243° |
| 2026-04-28 19:52 | 51.58475 | -2.11005 | 18128 ft | 371 kts | 230° |
| 2026-04-28 19:52 | 51.56886 | -2.14227 | 17783 ft | 367 kts | 226° |
| 2026-04-28 19:52 | 51.55292 | -2.17410 | 17465 ft | 364 kts | 227° |
| 2026-04-28 19:52 | 51.53718 | -2.20570 | 17094 ft | 360 kts | 227° |
| 2026-04-28 19:53 | 51.52161 | -2.23697 | 16754 ft | 357 kts | 227° |
| 2026-04-28 19:53 | 51.50614 | -2.26798 | 16417 ft | 354 kts | 227° |
| 2026-04-28 19:53 | 51.49079 | -2.29862 | 16079 ft | 351 kts | 227° |
| 2026-04-28 19:53 | 51.47556 | -2.32900 | 15754 ft | 348 kts | 227° |
| 2026-04-28 19:54 | 51.46044 | -2.35911 | 15420 ft | 345 kts | 227° |
| 2026-04-28 19:54 | 51.44543 | -2.38896 | 15092 ft | 342 kts | 227° |
| 2026-04-28 19:54 | 51.43053 | -2.41869 | 14774 ft | 342 kts | 229° |
| 2026-04-28 19:54 | 51.41928 | -2.45231 | 14454 ft | 346 kts | 252° |
| 2026-04-28 19:55 | 51.41661 | -2.49016 | 14101 ft | 342 kts | 276° |
| 2026-04-28 19:55 | 51.42244 | -2.52653 | 13687 ft | 336 kts | 294° |
| 2026-04-28 19:55 | 51.43102 | -2.56121 | 13242 ft | 334 kts | 295° |
| 2026-04-28 19:55 | 51.43975 | -2.59557 | 12829 ft | 331 kts | 295° |
| 2026-04-28 19:56 | 51.44840 | -2.62959 | 12408 ft | 329 kts | 295° |
| 2026-04-28 19:56 | 51.45699 | -2.66339 | 11999 ft | 326 kts | 295° |
| 2026-04-28 19:56 | 51.46552 | -2.69697 | 11576 ft | 323 kts | 295° |
| 2026-04-28 19:56 | 51.47399 | -2.73022 | 11155 ft | 321 kts | 295° |
| 2026-04-28 19:57 | 51.48227 | -2.76277 | 10752 ft | 318 kts | 295° |
| 2026-04-28 19:57 | 51.49058 | -2.79544 | 10375 ft | 314 kts | 295° |
| 2026-04-28 19:57 | 51.49877 | -2.82780 | 10023 ft | 311 kts | 295° |
| 2026-04-28 19:57 | 51.50687 | -2.85986 | 9554 ft | 309 kts | 295° |
| 2026-04-28 19:58 | 51.51496 | -2.89175 | 9080 ft | 307 kts | 295° |
| 2026-04-28 19:58 | 51.52303 | -2.92348 | 8586 ft | 306 kts | 295° |
| 2026-04-28 19:58 | 51.53107 | -2.95494 | 8117 ft | 304 kts | 295° |
| 2026-04-28 19:58 | 51.53908 | -2.98621 | 7629 ft | 302 kts | 295° |
| 2026-04-28 19:59 | 51.54711 | -3.01733 | 7129 ft | 301 kts | 295° |
| 2026-04-28 19:59 | 51.55512 | -3.04830 | 6627 ft | 300 kts | 295° |
| 2026-04-28 19:59 | 51.56307 | -3.07916 | 6146 ft | 297 kts | 295° |
| 2026-04-28 19:59 | 51.57090 | -3.10979 | 5635 ft | 295 kts | 295° |
| 2026-04-28 20:00 | 51.57859 | -3.14030 | 5145 ft | 294 kts | 295° |
| 2026-04-28 20:00 | 51.58614 | -3.17064 | 4896 ft | 293 kts | 295° |
| 2026-04-28 20:00 | 51.59368 | -3.20107 | 4792 ft | 293 kts | 295° |
| 2026-04-28 20:00 | 51.60122 | -3.23159 | 4796 ft | 294 kts | 295° |
| 2026-04-28 20:01 | 51.60874 | -3.26211 | 4793 ft | 294 kts | 295° |
| 2026-04-28 20:01 | 51.61630 | -3.29266 | 4809 ft | 294 kts | 295° |
| 2026-04-28 20:01 | 51.62379 | -3.32317 | 4806 ft | 292 kts | 295° |
| 2026-04-28 20:01 | 51.63120 | -3.35365 | 4806 ft | 293 kts | 295° |
| 2026-04-28 20:02 | 51.63870 | -3.38418 | 4799 ft | 293 kts | 294° |
| 2026-04-28 20:02 | 51.64642 | -3.41468 | 4808 ft | 294 kts | 295° |
| 2026-04-28 20:02 | 51.65420 | -3.44509 | 4819 ft | 295 kts | 295° |
| 2026-04-28 20:02 | 51.66141 | -3.47596 | 4805 ft | 296 kts | 285° |
| 2026-04-28 20:03 | 51.66244 | -3.50895 | 4814 ft | 297 kts | 260° |
| 2026-04-28 20:03 | 51.65557 | -3.53984 | 4805 ft | 292 kts | 234° |
| 2026-04-28 20:03 | 51.64220 | -3.56365 | 4673 ft | 283 kts | 211° |
| 2026-04-28 20:03 | 51.62506 | -3.57733 | 3992 ft | 269 kts | 187° |
| 2026-04-28 20:04 | 51.60742 | -3.57931 | 3693 ft | 238 kts | 167° |
| 2026-04-28 20:04 | 51.59214 | -3.57586 | 3602 ft | 206 kts | 164° |
| 2026-04-28 20:04 | 51.57871 | -3.57299 | 3543 ft | 187 kts | 163° |
| 2026-04-28 20:04 | 51.56615 | -3.57024 | 3474 ft | 181 kts | 163° |
| 2026-04-28 20:05 | 51.55370 | -3.56741 | 3412 ft | 180 kts | 162° |
| 2026-04-28 20:05 | 51.54131 | -3.56454 | 3344 ft | 180 kts | 161° |
| 2026-04-28 20:05 | 51.52887 | -3.56165 | 3284 ft | 181 kts | 161° |
| 2026-04-28 20:05 | 51.51641 | -3.55873 | 3226 ft | 182 kts | 162° |
| 2026-04-28 20:06 | 51.50374 | -3.55575 | 3152 ft | 186 kts | 162° |
| 2026-04-28 20:06 | 51.49106 | -3.55282 | 3086 ft | 187 kts | 163° |
| 2026-04-28 20:06 | 51.47819 | -3.54989 | 3013 ft | 186 kts | 162° |
| 2026-04-28 20:06 | 51.46620 | -3.54390 | 2951 ft | 176 kts | 141° |
| 2026-04-28 20:07 | 51.45689 | -3.53208 | 2815 ft | 167 kts | 121° |
| 2026-04-28 20:07 | 51.45273 | -3.52207 | 2627 ft | 152 kts | 109° |
| 2026-04-28 20:07 | 51.44688 | -3.50350 | 2313 ft | 131 kts | 107° |
| 2026-04-28 20:07 | 51.44296 | -3.49099 | 2124 ft | 121 kts | 106° |
| 2026-04-28 20:08 | 51.43926 | -3.47916 | 1948 ft | 117 kts | 105° |
| 2026-04-28 20:08 | 51.43563 | -3.46754 | 1798 ft | 115 kts | 105° |
| 2026-04-28 20:08 | 51.43209 | -3.45626 | 1635 ft | 111 kts | 105° |
| 2026-04-28 20:08 | 51.42867 | -3.44536 | 1484 ft | 109 kts | 106° |
| 2026-04-28 20:09 | 51.42530 | -3.43459 | 1340 ft | 109 kts | 107° |
| 2026-04-28 20:09 | 51.42192 | -3.42381 | 1173 ft | 109 kts | 106° |
| 2026-04-28 20:09 | 51.41849 | -3.41289 | 1046 ft | 109 kts | 107° |
| 2026-04-28 20:09 | 51.41506 | -3.40202 | 882 ft | 110 kts | 107° |
| 2026-04-28 20:10 | 51.41166 | -3.39110 | 740 ft | 109 kts | 105° |
| 2026-04-28 20:10 | 51.40829 | -3.38001 | 579 ft | 113 kts | 109° |
| 2026-04-28 20:10 | 51.40457 | -3.36905 | 420 ft | 110 kts | 107° |
| 2026-04-28 20:10 | 51.40122 | -3.35806 | 290 ft | 110 kts | 106° |
| 2026-04-28 20:11 | 51.39799 | -3.34756 | 221 ft | 90 kts | 117° |
| 2026-04-28 20:11 | 51.39562 | -3.34011 | 224 ft | 57 kts | 118° |
| 2026-04-28 20:11 | 51.39418 | -3.33555 | 223 ft | 33 kts | 116° |
| 2026-04-28 20:11 | 51.39315 | -3.33237 | 222 ft | 29 kts | 116° |
| 2026-04-28 20:12 | 51.39329 | -3.33086 | 223 ft | 16 kts | 28° |
| 2026-04-28 20:12 | 51.39424 | -3.33048 | 220 ft | 14 kts | 332° |
| 2026-04-28 20:12 | 51.39484 | -3.33184 | 222 ft | 15 kts | 295° |
| 2026-04-28 20:12 | 51.39515 | -3.33282 | 222 ft | 16 kts | 297° |
| 2026-04-28 20:13 | 51.39590 | -3.33516 | 220 ft | 19 kts | 296° |
| 2026-04-28 20:13 | 51.39656 | -3.33722 | 221 ft | 22 kts | 297° |
| 2026-04-28 20:13 | 51.39732 | -3.33967 | 222 ft | 27 kts | 296° |
| 2026-04-28 20:13 | 51.39814 | -3.34225 | 223 ft | 24 kts | 297° |
| 2026-04-28 20:14 | 51.39838 | -3.34283 | 223 ft | 0 kts | 332° |
| 2026-04-28 20:15 | 51.39849 | -3.34285 | 223 ft | 0 kts | 358° |
| 2026-04-28 20:15 | 51.39864 | -3.34282 | 223 ft | 5 kts | 12° |
| 2026-04-28 20:15 | 51.39910 | -3.34247 | 223 ft | 10 kts | 25° |
| 2026-04-28 20:16 | 51.39915 | -3.34171 | 222 ft | 2 kts | 115° |
| 2026-04-28 20:16 | 51.39912 | -3.34161 | 222 ft | 0 kts | 116° |